sensor_id;sensor_type;location;lat;lon;timestamp;P1;durP1;ratioP1;P2;durP2;ratioP2
82415;SDS011;72058;47.782;10.618;2023-10-09T00:02:05;11.18;;;5.38;;
82415;SDS011;72058;47.782;10.618;2023-10-09T00:04:32;9.23;;;4.38;;
82415;SDS011;72058;47.782;10.618;2023-10-09T00:07:01;8.75;;;4.90;;
82415;SDS011;72058;47.782;10.618;2023-10-09T00:11:56;11.20;;;6.05;;
82415;SDS011;72058;47.782;10.618;2023-10-09T00:14:25;13.25;;;3.83;;
82415;SDS011;72058;47.782;10.618;2023-10-09T00:16:55;10.20;;;4.20;;
82415;SDS011;72058;47.782;10.618;2023-10-09T00:19:28;10.90;;;4.05;;
82415;SDS011;72058;47.782;10.618;2023-10-09T00:21:56;11.23;;;5.10;;
82415;SDS011;72058;47.782;10.618;2023-10-09T00:24:23;13.35;;;6.20;;
82415;SDS011;72058;47.782;10.618;2023-10-09T00:26:49;11.18;;;4.47;;
82415;SDS011;72058;47.782;10.618;2023-10-09T00:29:21;9.15;;;4.20;;
82415;SDS011;72058;47.782;10.618;2023-10-09T00:31:53;10.20;;;4.30;;
82415;SDS011;72058;47.782;10.618;2023-10-09T00:34:37;7.80;;;4.75;;
82415;SDS011;72058;47.782;10.618;2023-10-09T00:37:06;11.93;;;5.25;;
82415;SDS011;72058;47.782;10.618;2023-10-09T00:39:48;10.70;;;4.95;;
82415;SDS011;72058;47.782;10.618;2023-10-09T00:42:20;12.90;;;4.53;;
82415;SDS011;72058;47.782;10.618;2023-10-09T00:44:53;11.52;;;4.40;;
82415;SDS011;72058;47.782;10.618;2023-10-09T00:47:19;9.02;;;4.63;;
82415;SDS011;72058;47.782;10.618;2023-10-09T00:49:52;14.80;;;4.40;;
82415;SDS011;72058;47.782;10.618;2023-10-09T00:52:26;8.25;;;4.65;;
82415;SDS011;72058;47.782;10.618;2023-10-09T00:55:01;9.50;;;4.20;;
82415;SDS011;72058;47.782;10.618;2023-10-09T00:58:00;10.77;;;4.78;;
82415;SDS011;72058;47.782;10.618;2023-10-09T01:00:30;10.10;;;5.78;;
82415;SDS011;72058;47.782;10.618;2023-10-09T01:03:14;9.55;;;4.22;;
82415;SDS011;72058;47.782;10.618;2023-10-09T01:05:42;11.50;;;4.40;;
82415;SDS011;72058;47.782;10.618;2023-10-09T01:08:16;8.38;;;3.92;;
82415;SDS011;72058;47.782;10.618;2023-10-09T01:10:50;8.60;;;4.43;;
82415;SDS011;72058;47.782;10.618;2023-10-09T01:13:22;9.75;;;4.18;;
82415;SDS011;72058;47.782;10.618;2023-10-09T01:15:54;9.82;;;4.90;;
82415;SDS011;72058;47.782;10.618;2023-10-09T01:18:24;11.23;;;5.25;;
82415;SDS011;72058;47.782;10.618;2023-10-09T01:20:57;7.43;;;4.32;;
82415;SDS011;72058;47.782;10.618;2023-10-09T01:23:22;12.02;;;4.72;;
82415;SDS011;72058;47.782;10.618;2023-10-09T01:25:48;8.43;;;4.72;;
82415;SDS011;72058;47.782;10.618;2023-10-09T01:28:15;9.43;;;4.10;;
82415;SDS011;72058;47.782;10.618;2023-10-09T01:30:41;13.20;;;5.63;;
82415;SDS011;72058;47.782;10.618;2023-10-09T01:33:08;8.77;;;4.15;;
82415;SDS011;72058;47.782;10.618;2023-10-09T01:35:47;10.60;;;4.55;;
82415;SDS011;72058;47.782;10.618;2023-10-09T01:38:14;10.30;;;4.65;;
82415;SDS011;72058;47.782;10.618;2023-10-09T01:40:40;9.57;;;3.95;;
82415;SDS011;72058;47.782;10.618;2023-10-09T01:43:06;12.57;;;6.00;;
82415;SDS011;72058;47.782;10.618;2023-10-09T01:45:35;10.93;;;4.60;;
82415;SDS011;72058;47.782;10.618;2023-10-09T01:48:08;11.20;;;4.60;;
82415;SDS011;72058;47.782;10.618;2023-10-09T01:50:34;12.75;;;4.47;;
82415;SDS011;72058;47.782;10.618;2023-10-09T01:53:06;15.05;;;4.82;;
82415;SDS011;72058;47.782;10.618;2023-10-09T01:55:34;23.00;;;4.90;;
82415;SDS011;72058;47.782;10.618;2023-10-09T01:58:09;13.27;;;4.95;;
82415;SDS011;72058;47.782;10.618;2023-10-09T02:00:42;9.65;;;4.05;;
82415;SDS011;72058;47.782;10.618;2023-10-09T02:03:13;8.05;;;4.78;;
82415;SDS011;72058;47.782;10.618;2023-10-09T02:05:38;12.65;;;4.93;;
82415;SDS011;72058;47.782;10.618;2023-10-09T02:08:04;10.80;;;4.07;;
82415;SDS011;72058;47.782;10.618;2023-10-09T02:10:31;18.17;;;4.72;;
82415;SDS011;72058;47.782;10.618;2023-10-09T02:12:57;12.43;;;4.50;;
82415;SDS011;72058;47.782;10.618;2023-10-09T02:15:36;13.20;;;5.68;;
82415;SDS011;72058;47.782;10.618;2023-10-09T02:18:11;13.77;;;4.22;;
82415;SDS011;72058;47.782;10.618;2023-10-09T02:23:38;10.88;;;4.18;;
82415;SDS011;72058;47.782;10.618;2023-10-09T02:26:06;7.88;;;4.55;;
82415;SDS011;72058;47.782;10.618;2023-10-09T02:28:34;14.20;;;4.72;;
82415;SDS011;72058;47.782;10.618;2023-10-09T02:31:01;6.95;;;4.13;;
82415;SDS011;72058;47.782;10.618;2023-10-09T02:33:35;10.88;;;5.50;;
82415;SDS011;72058;47.782;10.618;2023-10-09T02:36:01;11.15;;;4.68;;
82415;SDS011;72058;47.782;10.618;2023-10-09T02:38:30;13.07;;;4.60;;
82415;SDS011;72058;47.782;10.618;2023-10-09T02:40:59;10.43;;;4.30;;
82415;SDS011;72058;47.782;10.618;2023-10-09T02:43:27;9.05;;;5.35;;
82415;SDS011;72058;47.782;10.618;2023-10-09T02:45:59;9.88;;;4.15;;
82415;SDS011;72058;47.782;10.618;2023-10-09T02:48:37;12.57;;;4.70;;
82415;SDS011;72058;47.782;10.618;2023-10-09T02:51:07;10.20;;;4.22;;
82415;SDS011;72058;47.782;10.618;2023-10-09T02:53:39;10.32;;;3.50;;
82415;SDS011;72058;47.782;10.618;2023-10-09T02:56:05;8.23;;;4.35;;
82415;SDS011;72058;47.782;10.618;2023-10-09T02:58:42;12.30;;;4.63;;
82415;SDS011;72058;47.782;10.618;2023-10-09T03:01:11;8.50;;;5.07;;
82415;SDS011;72058;47.782;10.618;2023-10-09T03:03:39;9.32;;;4.15;;
82415;SDS011;72058;47.782;10.618;2023-10-09T03:06:06;8.05;;;4.25;;
82415;SDS011;72058;47.782;10.618;2023-10-09T03:08:37;9.93;;;4.82;;
82415;SDS011;72058;47.782;10.618;2023-10-09T03:11:02;9.50;;;4.63;;
82415;SDS011;72058;47.782;10.618;2023-10-09T03:13:30;11.77;;;5.30;;
82415;SDS011;72058;47.782;10.618;2023-10-09T03:15:58;14.88;;;5.47;;
82415;SDS011;72058;47.782;10.618;2023-10-09T03:18:23;6.88;;;3.72;;
82415;SDS011;72058;47.782;10.618;2023-10-09T03:20:49;7.45;;;5.07;;
82415;SDS011;72058;47.782;10.618;2023-10-09T03:23:15;12.35;;;4.97;;
82415;SDS011;72058;47.782;10.618;2023-10-09T03:25:41;9.15;;;3.88;;
82415;SDS011;72058;47.782;10.618;2023-10-09T03:28:10;10.70;;;4.32;;
82415;SDS011;72058;47.782;10.618;2023-10-09T03:30:37;13.38;;;4.35;;
82415;SDS011;72058;47.782;10.618;2023-10-09T03:33:05;11.75;;;4.75;;
82415;SDS011;72058;47.782;10.618;2023-10-09T03:35:32;10.05;;;4.30;;
82415;SDS011;72058;47.782;10.618;2023-10-09T03:37:59;7.38;;;4.03;;
82415;SDS011;72058;47.782;10.618;2023-10-09T03:40:27;13.20;;;5.30;;
82415;SDS011;72058;47.782;10.618;2023-10-09T03:42:53;10.95;;;5.72;;
82415;SDS011;72058;47.782;10.618;2023-10-09T03:45:21;9.02;;;5.05;;
82415;SDS011;72058;47.782;10.618;2023-10-09T03:47:53;12.57;;;4.00;;
82415;SDS011;72058;47.782;10.618;2023-10-09T03:50:26;9.23;;;4.45;;
82415;SDS011;72058;47.782;10.618;2023-10-09T03:52:54;10.82;;;4.35;;
82415;SDS011;72058;47.782;10.618;2023-10-09T03:55:20;10.55;;;5.03;;
82415;SDS011;72058;47.782;10.618;2023-10-09T03:57:47;12.77;;;5.93;;
82415;SDS011;72058;47.782;10.618;2023-10-09T04:00:13;10.45;;;4.60;;
82415;SDS011;72058;47.782;10.618;2023-10-09T04:02:52;8.60;;;4.28;;
82415;SDS011;72058;47.782;10.618;2023-10-09T04:05:19;10.07;;;4.22;;
82415;SDS011;72058;47.782;10.618;2023-10-09T04:07:44;11.52;;;4.72;;
82415;SDS011;72058;47.782;10.618;2023-10-09T04:10:10;8.77;;;5.13;;
82415;SDS011;72058;47.782;10.618;2023-10-09T04:12:54;10.27;;;4.60;;
82415;SDS011;72058;47.782;10.618;2023-10-09T04:15:23;14.65;;;5.13;;
82415;SDS011;72058;47.782;10.618;2023-10-09T04:17:49;8.35;;;4.55;;
82415;SDS011;72058;47.782;10.618;2023-10-09T04:20:16;12.77;;;5.13;;
82415;SDS011;72058;47.782;10.618;2023-10-09T04:22:45;10.88;;;5.05;;
82415;SDS011;72058;47.782;10.618;2023-10-09T04:25:24;8.55;;;4.80;;
82415;SDS011;72058;47.782;10.618;2023-10-09T04:30:43;15.82;;;5.80;;
82415;SDS011;72058;47.782;10.618;2023-10-09T04:33:14;12.38;;;5.93;;
82415;SDS011;72058;47.782;10.618;2023-10-09T04:36:05;11.15;;;5.05;;
82415;SDS011;72058;47.782;10.618;2023-10-09T04:38:43;12.57;;;6.53;;
82415;SDS011;72058;47.782;10.618;2023-10-09T04:41:23;9.70;;;5.72;;
82415;SDS011;72058;47.782;10.618;2023-10-09T04:44:00;8.45;;;4.80;;
82415;SDS011;72058;47.782;10.618;2023-10-09T04:46:44;11.20;;;5.88;;
82415;SDS011;72058;47.782;10.618;2023-10-09T04:49:42;11.98;;;5.40;;
82415;SDS011;72058;47.782;10.618;2023-10-09T04:52:16;11.00;;;5.07;;
82415;SDS011;72058;47.782;10.618;2023-10-09T04:54:55;8.25;;;4.85;;
82415;SDS011;72058;47.782;10.618;2023-10-09T05:00:17;10.77;;;5.30;;
82415;SDS011;72058;47.782;10.618;2023-10-09T05:02:52;14.23;;;6.15;;
82415;SDS011;72058;47.782;10.618;2023-10-09T05:05:26;13.27;;;4.95;;
82415;SDS011;72058;47.782;10.618;2023-10-09T05:11:08;14.38;;;6.13;;
82415;SDS011;72058;47.782;10.618;2023-10-09T05:13:40;14.77;;;7.57;;
82415;SDS011;72058;47.782;10.618;2023-10-09T05:18:47;16.95;;;9.10;;
82415;SDS011;72058;47.782;10.618;2023-10-09T05:21:33;18.05;;;9.30;;
82415;SDS011;72058;47.782;10.618;2023-10-09T05:24:09;19.05;;;8.80;;
82415;SDS011;72058;47.782;10.618;2023-10-09T05:26:38;15.27;;;7.95;;
82415;SDS011;72058;47.782;10.618;2023-10-09T05:29:12;16.45;;;7.13;;
82415;SDS011;72058;47.782;10.618;2023-10-09T05:34:27;10.88;;;5.47;;
82415;SDS011;72058;47.782;10.618;2023-10-09T05:37:07;13.57;;;5.88;;
82415;SDS011;72058;47.782;10.618;2023-10-09T05:39:45;14.60;;;5.32;;
82415;SDS011;72058;47.782;10.618;2023-10-09T05:42:44;9.88;;;5.65;;
82415;SDS011;72058;47.782;10.618;2023-10-09T05:45:11;14.82;;;6.85;;
82415;SDS011;72058;47.782;10.618;2023-10-09T05:50:18;16.38;;;7.28;;
82415;SDS011;72058;47.782;10.618;2023-10-09T05:52:47;10.55;;;6.18;;
82415;SDS011;72058;47.782;10.618;2023-10-09T05:55:25;10.82;;;6.45;;
82415;SDS011;72058;47.782;10.618;2023-10-09T05:58:03;14.45;;;5.53;;
82415;SDS011;72058;47.782;10.618;2023-10-09T06:00:34;13.82;;;6.43;;
82415;SDS011;72058;47.782;10.618;2023-10-09T06:03:19;11.88;;;5.60;;
82415;SDS011;72058;47.782;10.618;2023-10-09T06:05:50;13.32;;;6.68;;
82415;SDS011;72058;47.782;10.618;2023-10-09T06:08:26;10.70;;;5.63;;
82415;SDS011;72058;47.782;10.618;2023-10-09T06:11:09;12.65;;;6.50;;
82415;SDS011;72058;47.782;10.618;2023-10-09T06:14:01;14.60;;;5.47;;
82415;SDS011;72058;47.782;10.618;2023-10-09T06:16:40;14.27;;;5.60;;
82415;SDS011;72058;47.782;10.618;2023-10-09T06:19:07;12.88;;;6.05;;
82415;SDS011;72058;47.782;10.618;2023-10-09T06:21:52;11.18;;;5.03;;
82415;SDS011;72058;47.782;10.618;2023-10-09T06:24:29;10.38;;;5.82;;
82415;SDS011;72058;47.782;10.618;2023-10-09T06:27:10;12.55;;;6.18;;
82415;SDS011;72058;47.782;10.618;2023-10-09T06:29:36;11.68;;;5.55;;
82415;SDS011;72058;47.782;10.618;2023-10-09T06:32:08;13.13;;;6.07;;
82415;SDS011;72058;47.782;10.618;2023-10-09T06:34:46;11.55;;;4.95;;
82415;SDS011;72058;47.782;10.618;2023-10-09T06:37:22;8.38;;;5.10;;
82415;SDS011;72058;47.782;10.618;2023-10-09T06:39:57;10.60;;;4.88;;
82415;SDS011;72058;47.782;10.618;2023-10-09T06:42:26;7.60;;;3.87;;
82415;SDS011;72058;47.782;10.618;2023-10-09T06:44:55;12.30;;;7.28;;
82415;SDS011;72058;47.782;10.618;2023-10-09T06:47:24;19.55;;;7.30;;
82415;SDS011;72058;47.782;10.618;2023-10-09T06:49:49;12.40;;;7.37;;
82415;SDS011;72058;47.782;10.618;2023-10-09T06:52:34;10.15;;;6.72;;
82415;SDS011;72058;47.782;10.618;2023-10-09T06:55:18;14.48;;;6.00;;
82415;SDS011;72058;47.782;10.618;2023-10-09T06:57:44;9.32;;;6.30;;
82415;SDS011;72058;47.782;10.618;2023-10-09T07:00:14;9.75;;;5.32;;
82415;SDS011;72058;47.782;10.618;2023-10-09T07:02:58;11.20;;;6.18;;
82415;SDS011;72058;47.782;10.618;2023-10-09T07:05:36;13.60;;;5.60;;
82415;SDS011;72058;47.782;10.618;2023-10-09T07:08:14;9.60;;;5.82;;
82415;SDS011;72058;47.782;10.618;2023-10-09T07:10:57;11.00;;;6.82;;
82415;SDS011;72058;47.782;10.618;2023-10-09T07:13:45;13.65;;;7.32;;
82415;SDS011;72058;47.782;10.618;2023-10-09T07:19:04;19.38;;;10.93;;
82415;SDS011;72058;47.782;10.618;2023-10-09T07:21:55;14.70;;;7.85;;
82415;SDS011;72058;47.782;10.618;2023-10-09T07:24:27;13.43;;;5.47;;
82415;SDS011;72058;47.782;10.618;2023-10-09T07:27:03;12.20;;;6.90;;
82415;SDS011;72058;47.782;10.618;2023-10-09T07:29:34;8.70;;;5.40;;
82415;SDS011;72058;47.782;10.618;2023-10-09T07:32:12;14.18;;;5.68;;
82415;SDS011;72058;47.782;10.618;2023-10-09T07:34:44;12.05;;;4.38;;
82415;SDS011;72058;47.782;10.618;2023-10-09T07:40:03;11.55;;;4.10;;
82415;SDS011;72058;47.782;10.618;2023-10-09T07:42:32;14.73;;;4.43;;
82415;SDS011;72058;47.782;10.618;2023-10-09T07:45:19;8.20;;;4.18;;
82415;SDS011;72058;47.782;10.618;2023-10-09T07:47:47;9.63;;;3.63;;
82415;SDS011;72058;47.782;10.618;2023-10-09T07:50:25;8.68;;;3.80;;
82415;SDS011;72058;47.782;10.618;2023-10-09T07:52:55;9.35;;;4.00;;
82415;SDS011;72058;47.782;10.618;2023-10-09T07:55:39;9.85;;;3.70;;
82415;SDS011;72058;47.782;10.618;2023-10-09T07:58:11;11.23;;;3.40;;
82415;SDS011;72058;47.782;10.618;2023-10-09T08:00:36;14.43;;;4.90;;
82415;SDS011;72058;47.782;10.618;2023-10-09T08:03:14;12.05;;;4.63;;
82415;SDS011;72058;47.782;10.618;2023-10-09T08:05:49;10.32;;;3.95;;
82415;SDS011;72058;47.782;10.618;2023-10-09T08:08:17;13.82;;;4.15;;
82415;SDS011;72058;47.782;10.618;2023-10-09T08:11:07;7.75;;;3.58;;
82415;SDS011;72058;47.782;10.618;2023-10-09T08:14:05;9.00;;;3.53;;
82415;SDS011;72058;47.782;10.618;2023-10-09T08:16:45;8.93;;;3.33;;
82415;SDS011;72058;47.782;10.618;2023-10-09T08:19:11;10.50;;;3.97;;
82415;SDS011;72058;47.782;10.618;2023-10-09T08:21:57;14.48;;;4.45;;
82415;SDS011;72058;47.782;10.618;2023-10-09T08:24:52;7.15;;;3.30;;
82415;SDS011;72058;47.782;10.618;2023-10-09T08:27:21;9.05;;;3.55;;
82415;SDS011;72058;47.782;10.618;2023-10-09T08:29:55;16.77;;;4.40;;
82415;SDS011;72058;47.782;10.618;2023-10-09T08:32:46;8.85;;;3.33;;
82415;SDS011;72058;47.782;10.618;2023-10-09T08:35:28;11.13;;;4.07;;
82415;SDS011;72058;47.782;10.618;2023-10-09T08:38:02;11.80;;;3.47;;
82415;SDS011;72058;47.782;10.618;2023-10-09T08:40:34;10.68;;;4.38;;
82415;SDS011;72058;47.782;10.618;2023-10-09T08:43:14;11.40;;;3.22;;
82415;SDS011;72058;47.782;10.618;2023-10-09T08:45:43;8.02;;;2.95;;
82415;SDS011;72058;47.782;10.618;2023-10-09T08:48:11;19.30;;;3.90;;
82415;SDS011;72058;47.782;10.618;2023-10-09T08:50:40;9.65;;;3.22;;
82415;SDS011;72058;47.782;10.618;2023-10-09T08:53:10;11.80;;;3.78;;
82415;SDS011;72058;47.782;10.618;2023-10-09T08:55:37;11.82;;;4.07;;
82415;SDS011;72058;47.782;10.618;2023-10-09T08:58:05;12.82;;;4.18;;
82415;SDS011;72058;47.782;10.618;2023-10-09T09:00:44;14.75;;;4.50;;
82415;SDS011;72058;47.782;10.618;2023-10-09T09:03:17;12.73;;;3.90;;
82415;SDS011;72058;47.782;10.618;2023-10-09T09:05:45;8.65;;;3.58;;
82415;SDS011;72058;47.782;10.618;2023-10-09T09:08:24;6.97;;;3.60;;
82415;SDS011;72058;47.782;10.618;2023-10-09T09:14:18;12.93;;;3.10;;
82415;SDS011;72058;47.782;10.618;2023-10-09T09:16:40;9.60;;;3.92;;
82415;SDS011;72058;47.782;10.618;2023-10-09T09:19:09;7.22;;;3.35;;
82415;SDS011;72058;47.782;10.618;2023-10-09T09:21:41;10.40;;;3.95;;
82415;SDS011;72058;47.782;10.618;2023-10-09T09:24:09;9.68;;;3.60;;
82415;SDS011;72058;47.782;10.618;2023-10-09T09:29:10;12.70;;;3.35;;
82415;SDS011;72058;47.782;10.618;2023-10-09T09:31:37;11.93;;;3.95;;
82415;SDS011;72058;47.782;10.618;2023-10-09T09:34:07;13.00;;;3.67;;
82415;SDS011;72058;47.782;10.618;2023-10-09T09:36:54;10.80;;;3.70;;
82415;SDS011;72058;47.782;10.618;2023-10-09T09:39:22;13.10;;;3.80;;
82415;SDS011;72058;47.782;10.618;2023-10-09T09:42:01;9.95;;;3.40;;
82415;SDS011;72058;47.782;10.618;2023-10-09T09:44:32;13.82;;;5.38;;
82415;SDS011;72058;47.782;10.618;2023-10-09T09:47:08;10.52;;;4.40;;
82415;SDS011;72058;47.782;10.618;2023-10-09T09:49:40;14.45;;;4.57;;
82415;SDS011;72058;47.782;10.618;2023-10-09T09:52:07;12.13;;;5.32;;
82415;SDS011;72058;47.782;10.618;2023-10-09T09:54:38;13.63;;;4.78;;
82415;SDS011;72058;47.782;10.618;2023-10-09T09:57:05;16.92;;;5.15;;
82415;SDS011;72058;47.782;10.618;2023-10-09T09:59:39;13.38;;;3.97;;
82415;SDS011;72058;47.782;10.618;2023-10-09T10:02:07;12.43;;;4.30;;
82415;SDS011;72058;47.782;10.618;2023-10-09T10:04:36;10.48;;;3.50;;
82415;SDS011;72058;47.782;10.618;2023-10-09T10:07:06;10.65;;;3.92;;
82415;SDS011;72058;47.782;10.618;2023-10-09T10:09:38;11.90;;;3.88;;
82415;SDS011;72058;47.782;10.618;2023-10-09T10:12:06;9.57;;;3.58;;
82415;SDS011;72058;47.782;10.618;2023-10-09T10:14:52;11.48;;;3.85;;
82415;SDS011;72058;47.782;10.618;2023-10-09T10:17:17;8.20;;;3.65;;
82415;SDS011;72058;47.782;10.618;2023-10-09T10:20:02;12.55;;;5.35;;
82415;SDS011;72058;47.782;10.618;2023-10-09T10:22:45;17.10;;;3.63;;
82415;SDS011;72058;47.782;10.618;2023-10-09T10:28:23;15.27;;;4.85;;
82415;SDS011;72058;47.782;10.618;2023-10-09T10:31:10;9.90;;;3.60;;
82415;SDS011;72058;47.782;10.618;2023-10-09T10:36:20;11.52;;;4.68;;
82415;SDS011;72058;47.782;10.618;2023-10-09T10:38:58;11.52;;;3.72;;
82415;SDS011;72058;47.782;10.618;2023-10-09T10:41:34;9.27;;;4.07;;
82415;SDS011;72058;47.782;10.618;2023-10-09T10:44:31;13.45;;;4.55;;
82415;SDS011;72058;47.782;10.618;2023-10-09T10:47:11;10.45;;;4.20;;
82415;SDS011;72058;47.782;10.618;2023-10-09T10:49:48;13.85;;;4.53;;
82415;SDS011;72058;47.782;10.618;2023-10-09T10:52:22;11.40;;;4.13;;
82415;SDS011;72058;47.782;10.618;2023-10-09T10:57:53;8.30;;;3.95;;
82415;SDS011;72058;47.782;10.618;2023-10-09T11:00:25;10.30;;;3.83;;
82415;SDS011;72058;47.782;10.618;2023-10-09T11:03:22;19.70;;;3.88;;
82415;SDS011;72058;47.782;10.618;2023-10-09T11:06:30;11.57;;;4.07;;
82415;SDS011;72058;47.782;10.618;2023-10-09T11:09:08;11.75;;;3.72;;
82415;SDS011;72058;47.782;10.618;2023-10-09T11:11:46;9.93;;;3.88;;
82415;SDS011;72058;47.782;10.618;2023-10-09T11:14:14;12.32;;;3.60;;
82415;SDS011;72058;47.782;10.618;2023-10-09T11:16:40;11.25;;;3.30;;
82415;SDS011;72058;47.782;10.618;2023-10-09T11:19:21;12.18;;;4.05;;
82415;SDS011;72058;47.782;10.618;2023-10-09T11:22:03;12.63;;;3.80;;
82415;SDS011;72058;47.782;10.618;2023-10-09T11:24:32;13.63;;;3.78;;
82415;SDS011;72058;47.782;10.618;2023-10-09T11:26:59;10.60;;;4.07;;
82415;SDS011;72058;47.782;10.618;2023-10-09T11:29:31;9.68;;;4.10;;
82415;SDS011;72058;47.782;10.618;2023-10-09T11:32:16;7.78;;;2.63;;
82415;SDS011;72058;47.782;10.618;2023-10-09T11:34:49;12.98;;;3.83;;
82415;SDS011;72058;47.782;10.618;2023-10-09T11:37:20;11.48;;;3.72;;
82415;SDS011;72058;47.782;10.618;2023-10-09T11:39:54;14.32;;;5.25;;
82415;SDS011;72058;47.782;10.618;2023-10-09T11:42:20;13.02;;;4.18;;
82415;SDS011;72058;47.782;10.618;2023-10-09T11:45:06;11.63;;;4.68;;
82415;SDS011;72058;47.782;10.618;2023-10-09T11:47:50;15.25;;;4.68;;
82415;SDS011;72058;47.782;10.618;2023-10-09T11:53:08;11.73;;;4.97;;
82415;SDS011;72058;47.782;10.618;2023-10-09T11:55:45;13.32;;;4.68;;
82415;SDS011;72058;47.782;10.618;2023-10-09T11:58:17;11.82;;;4.50;;
82415;SDS011;72058;47.782;10.618;2023-10-09T12:00:55;8.20;;;3.80;;
82415;SDS011;72058;47.782;10.618;2023-10-09T12:03:26;10.73;;;4.53;;
82415;SDS011;72058;47.782;10.618;2023-10-09T12:05:55;12.23;;;4.75;;
82415;SDS011;72058;47.782;10.618;2023-10-09T12:08:37;12.05;;;4.00;;
82415;SDS011;72058;47.782;10.618;2023-10-09T12:11:04;9.38;;;3.70;;
82415;SDS011;72058;47.782;10.618;2023-10-09T12:13:33;12.30;;;4.88;;
82415;SDS011;72058;47.782;10.618;2023-10-09T12:15:58;9.45;;;3.63;;
82415;SDS011;72058;47.782;10.618;2023-10-09T12:18:24;14.35;;;3.80;;
82415;SDS011;72058;47.782;10.618;2023-10-09T12:20:50;9.57;;;4.68;;
82415;SDS011;72058;47.782;10.618;2023-10-09T12:23:20;7.35;;;3.45;;
82415;SDS011;72058;47.782;10.618;2023-10-09T12:25:50;11.25;;;4.05;;
82415;SDS011;72058;47.782;10.618;2023-10-09T12:28:21;11.20;;;3.53;;
82415;SDS011;72058;47.782;10.618;2023-10-09T12:30:47;9.27;;;3.15;;
82415;SDS011;72058;47.782;10.618;2023-10-09T12:33:18;10.65;;;4.03;;
82415;SDS011;72058;47.782;10.618;2023-10-09T12:35:52;9.30;;;3.92;;
82415;SDS011;72058;47.782;10.618;2023-10-09T12:38:18;8.35;;;3.28;;
82415;SDS011;72058;47.782;10.618;2023-10-09T12:40:47;17.15;;;4.03;;
82415;SDS011;72058;47.782;10.618;2023-10-09T12:43:18;9.55;;;3.63;;
82415;SDS011;72058;47.782;10.618;2023-10-09T12:48:10;9.90;;;3.75;;
82415;SDS011;72058;47.782;10.618;2023-10-09T12:50:37;11.32;;;3.78;;
82415;SDS011;72058;47.782;10.618;2023-10-09T12:53:09;14.10;;;3.70;;
82415;SDS011;72058;47.782;10.618;2023-10-09T12:55:39;12.23;;;3.53;;
82415;SDS011;72058;47.782;10.618;2023-10-09T12:58:07;13.05;;;4.38;;
82415;SDS011;72058;47.782;10.618;2023-10-09T13:00:37;9.52;;;3.17;;
82415;SDS011;72058;47.782;10.618;2023-10-09T13:03:09;9.25;;;3.55;;
82415;SDS011;72058;47.782;10.618;2023-10-09T13:05:52;10.82;;;3.60;;
82415;SDS011;72058;47.782;10.618;2023-10-09T13:08:25;5.72;;;3.53;;
82415;SDS011;72058;47.782;10.618;2023-10-09T13:13:35;13.73;;;3.92;;
82415;SDS011;72058;47.782;10.618;2023-10-09T13:16:06;7.68;;;3.65;;
82415;SDS011;72058;47.782;10.618;2023-10-09T13:18:40;14.23;;;4.20;;
82415;SDS011;72058;47.782;10.618;2023-10-09T13:21:06;15.07;;;4.90;;
82415;SDS011;72058;47.782;10.618;2023-10-09T13:23:32;13.48;;;4.63;;
82415;SDS011;72058;47.782;10.618;2023-10-09T13:26:05;10.40;;;4.15;;
82415;SDS011;72058;47.782;10.618;2023-10-09T13:28:43;11.77;;;3.83;;
82415;SDS011;72058;47.782;10.618;2023-10-09T13:31:10;7.97;;;3.28;;
82415;SDS011;72058;47.782;10.618;2023-10-09T13:33:39;7.90;;;3.70;;
82415;SDS011;72058;47.782;10.618;2023-10-09T13:36:06;9.63;;;4.30;;
82415;SDS011;72058;47.782;10.618;2023-10-09T13:38:41;12.32;;;4.28;;
82415;SDS011;72058;47.782;10.618;2023-10-09T13:41:08;10.88;;;4.72;;
82415;SDS011;72058;47.782;10.618;2023-10-09T13:43:38;16.77;;;4.40;;
82415;SDS011;72058;47.782;10.618;2023-10-09T13:46:06;9.52;;;4.32;;
82415;SDS011;72058;47.782;10.618;2023-10-09T13:48:33;10.82;;;4.90;;
82415;SDS011;72058;47.782;10.618;2023-10-09T13:51:03;11.65;;;4.53;;
82415;SDS011;72058;47.782;10.618;2023-10-09T13:53:33;9.90;;;4.18;;
82415;SDS011;72058;47.782;10.618;2023-10-09T13:56:10;8.95;;;4.10;;
82415;SDS011;72058;47.782;10.618;2023-10-09T13:58:45;12.15;;;4.22;;
82415;SDS011;72058;47.782;10.618;2023-10-09T14:01:20;11.63;;;4.25;;
82415;SDS011;72058;47.782;10.618;2023-10-09T14:03:57;11.55;;;4.25;;
82415;SDS011;72058;47.782;10.618;2023-10-09T14:06:25;13.30;;;4.93;;
82415;SDS011;72058;47.782;10.618;2023-10-09T14:08:58;14.88;;;4.28;;
82415;SDS011;72058;47.782;10.618;2023-10-09T14:11:28;11.07;;;4.60;;
82415;SDS011;72058;47.782;10.618;2023-10-09T14:13:54;10.80;;;4.43;;
82415;SDS011;72058;47.782;10.618;2023-10-09T14:16:19;12.60;;;4.53;;
82415;SDS011;72058;47.782;10.618;2023-10-09T14:18:55;11.20;;;3.95;;
82415;SDS011;72058;47.782;10.618;2023-10-09T14:21:28;9.48;;;4.30;;
82415;SDS011;72058;47.782;10.618;2023-10-09T14:23:55;8.30;;;3.42;;
82415;SDS011;72058;47.782;10.618;2023-10-09T14:26:27;15.05;;;4.65;;
82415;SDS011;72058;47.782;10.618;2023-10-09T14:28:54;10.93;;;4.72;;
82415;SDS011;72058;47.782;10.618;2023-10-09T14:31:22;9.30;;;3.90;;
82415;SDS011;72058;47.782;10.618;2023-10-09T14:33:55;10.60;;;4.47;;
82415;SDS011;72058;47.782;10.618;2023-10-09T14:36:21;10.40;;;4.00;;
82415;SDS011;72058;47.782;10.618;2023-10-09T14:38:50;9.82;;;4.10;;
82415;SDS011;72058;47.782;10.618;2023-10-09T14:41:20;10.45;;;2.80;;
82415;SDS011;72058;47.782;10.618;2023-10-09T14:43:48;8.93;;;3.15;;
82415;SDS011;72058;47.782;10.618;2023-10-09T14:46:17;8.88;;;3.63;;
82415;SDS011;72058;47.782;10.618;2023-10-09T14:48:50;12.90;;;3.90;;
82415;SDS011;72058;47.782;10.618;2023-10-09T14:51:22;10.02;;;3.40;;
82415;SDS011;72058;47.782;10.618;2023-10-09T14:53:58;10.98;;;3.40;;
82415;SDS011;72058;47.782;10.618;2023-10-09T14:56:27;13.07;;;3.85;;
82415;SDS011;72058;47.782;10.618;2023-10-09T14:58:58;10.65;;;3.92;;
82415;SDS011;72058;47.782;10.618;2023-10-09T15:01:25;11.80;;;3.63;;
82415;SDS011;72058;47.782;10.618;2023-10-09T15:03:53;10.55;;;4.53;;
82415;SDS011;72058;47.782;10.618;2023-10-09T15:06:22;12.40;;;4.93;;
82415;SDS011;72058;47.782;10.618;2023-10-09T15:08:48;13.30;;;5.15;;
82415;SDS011;72058;47.782;10.618;2023-10-09T15:11:14;8.73;;;4.55;;
82415;SDS011;72058;47.782;10.618;2023-10-09T15:13:40;9.85;;;4.68;;
82415;SDS011;72058;47.782;10.618;2023-10-09T15:16:05;11.00;;;5.32;;
82415;SDS011;72058;47.782;10.618;2023-10-09T15:18:31;12.32;;;3.50;;
82415;SDS011;72058;47.782;10.618;2023-10-09T15:20:58;11.57;;;4.13;;
82415;SDS011;72058;47.782;10.618;2023-10-09T15:23:24;8.32;;;4.40;;
82415;SDS011;72058;47.782;10.618;2023-10-09T15:25:50;8.55;;;4.03;;
82415;SDS011;72058;47.782;10.618;2023-10-09T15:28:18;9.50;;;4.55;;
82415;SDS011;72058;47.782;10.618;2023-10-09T15:30:44;9.05;;;3.58;;
82415;SDS011;72058;47.782;10.618;2023-10-09T15:33:13;10.68;;;3.90;;
82415;SDS011;72058;47.782;10.618;2023-10-09T15:35:41;8.80;;;3.78;;
82415;SDS011;72058;47.782;10.618;2023-10-09T15:38:14;8.95;;;3.60;;
82415;SDS011;72058;47.782;10.618;2023-10-09T15:40:41;10.13;;;4.07;;
82415;SDS011;72058;47.782;10.618;2023-10-09T15:43:08;10.77;;;3.20;;
82415;SDS011;72058;47.782;10.618;2023-10-09T15:45:40;8.35;;;3.72;;
82415;SDS011;72058;47.782;10.618;2023-10-09T15:48:07;10.20;;;4.43;;